.
WxDataArchive / Data Records for 2006-06-01
2006-05-31 June 2006 2006-06-02

Data Records for Thursday, 01 June 2006

Time	Temp	Chill	HIndex	Humid	Dewpt	 Wind 	HiWind	WindDir	Rain 	Barom 
-----	----	-----	------	-----	-----	------	------	-------	-----	----- 
00:00	69.6	69.6	69.6	94	67.8	0	0	---	0.00	30.025 
00:05	69.6	69.6	69.6	94	67.8	0	0	---	0.00	30.025 
00:10	69.4	69.4	69.4	94	67.6	0	1	315	0.00	30.025 
00:15	69.4	69.4	69.4	94	67.6	0	0	---	0.00	30.024 
00:20	69.3	69.3	69.3	94	67.5	0	0	---	0.00	30.024 
00:25	69.1	69.1	69.1	94	67.3	0	0	---	0.00	30.024 
00:30	69.1	69.1	69.1	94	67.3	0	0	---	0.00	30.016 
00:35	68.9	68.9	68.9	94	67.1	0	0	---	0.00	30.016 
00:40	68.8	68.8	68.8	94	67.0	0	0	---	0.00	30.016 
00:45	68.8	68.8	68.8	94	67.0	0	0	---	0.00	30.018 
00:50	68.6	68.6	68.6	95	67.1	0	0	---	0.00	30.018 
00:55	68.6	68.6	68.6	95	67.1	0	0	---	0.00	30.018 
01:00	68.4	68.4	68.4	95	66.9	0	0	---	0.00	30.013 
01:05	68.4	68.4	68.4	95	66.9	0	0	---	0.00	30.013 
01:10	68.3	68.3	68.3	95	66.8	0	0	---	0.00	30.013 
01:15	68.3	68.3	68.3	95	66.8	0	0	---	0.00	30.012 
01:20	68.3	68.3	68.3	95	66.8	0	0	---	0.00	30.012 
01:25	68.3	68.3	68.3	95	66.8	0	0	---	0.00	30.012 
01:30	68.3	68.3	68.3	95	66.8	0	0	---	0.00	30.012 
01:35	68.1	68.1	68.1	95	66.6	0	0	---	0.00	30.012 
01:40	68.1	68.1	68.1	95	66.6	0	0	---	0.00	30.012 
01:45	68.1	68.1	68.1	95	66.6	0	0	---	0.00	30.009 
01:50	68.1	68.1	68.1	95	66.6	0	0	---	0.00	30.009 
01:55	68.1	68.1	68.1	95	66.6	0	0	---	0.00	30.009 
02:00	68.1	68.1	68.1	95	66.6	0	0	---	0.00	30.000 
02:05	68.1	68.1	68.1	95	66.6	0	0	---	0.00	30.000 
02:10	68.1	68.1	68.1	95	66.6	0	0	---	0.00	30.000 
02:15	68.1	68.1	68.1	95	66.6	0	0	---	0.00	29.999 
02:20	68.1	68.1	68.1	95	66.6	0	0	---	0.00	29.999 
02:25	68.1	68.1	68.1	95	66.6	0	1	315	0.00	29.999 
02:30	68.3	68.3	68.3	95	66.8	0	0	---	0.00	30.000 
02:35	68.3	68.3	68.3	95	66.8	0	1	315	0.00	30.000 
02:40	68.3	68.3	68.3	95	66.8	0	0	---	0.00	30.000 
02:45	68.3	68.3	68.3	95	66.8	0	1	315	0.00	29.998 
02:50	68.3	68.3	68.3	95	66.8	0	1	315	0.00	29.998 
02:55	68.3	68.3	68.3	95	66.8	0	1	315	0.00	29.998 
03:00	68.3	68.3	68.3	95	66.8	0	0	---	0.00	29.996 
03:05	68.3	68.3	68.3	95	66.8	0	1	315	0.00	29.996 
03:10	68.1	68.1	68.1	95	66.6	0	0	---	0.00	29.996 
03:15	68.1	68.1	68.1	95	66.6	0	0	---	0.00	30.003 
03:20	67.9	67.9	67.9	95	66.4	0	0	---	0.00	30.003 
03:25	67.8	67.8	67.8	95	66.3	0	0	---	0.00	30.003 
03:30	67.6	67.6	67.6	95	66.1	0	0	---	0.00	30.006 
03:35	67.4	67.4	67.4	94	65.6	0	1	315	0.00	30.006 
03:40	67.3	67.3	67.3	94	65.5	0	1	315	0.00	30.006 
03:45	67.3	67.3	67.3	94	65.5	0	1	315	0.00	30.008 
03:50	67.3	67.3	67.3	94	65.5	0	1	315	0.00	30.008 
03:55	67.3	67.3	67.3	94	65.5	0	2	315	0.00	30.008 
04:00	67.1	67.1	67.1	94	65.3	0	1	315	0.00	30.006 
04:05	67.1	67.1	67.1	94	65.3	0	0	---	0.00	30.006 
04:10	67.1	67.1	67.1	94	65.3	0	0	---	0.00	30.006 
04:15	67.1	67.1	67.1	94	65.3	0	1	315	0.00	30.013 
04:20	67.1	67.1	67.1	94	65.3	0	0	---	0.00	30.013 
04:25	66.9	66.9	66.9	94	65.1	0	1	315	0.00	30.013 
04:30	66.9	66.9	66.9	94	65.1	0	0	---	0.00	30.012 
04:35	66.9	66.9	66.9	94	65.1	0	0	---	0.00	30.012 
04:40	66.8	66.8	66.8	94	65.0	0	0	---	0.00	30.012 
04:45	66.8	66.8	66.8	94	65.0	0	0	---	0.00	30.010 
04:50	66.8	66.8	66.8	94	65.0	0	0	---	0.00	30.010 
04:55	66.8	66.8	66.8	94	65.0	0	0	---	0.00	30.010 
05:00	66.8	66.8	66.8	94	65.0	0	0	---	0.00	30.006 
05:05	66.6	66.6	66.6	94	64.8	0	0	---	0.00	30.006 
05:10	66.6	66.6	66.6	94	64.8	0	0	---	0.00	30.006 
05:15	66.6	66.6	66.6	94	64.8	0	0	---	0.00	29.996 
05:20	66.4	66.4	66.4	94	64.6	0	0	---	0.00	29.996 
05:25	66.4	66.4	66.4	94	64.6	0	0	---	0.00	29.996 
05:30	66.4	66.4	66.4	94	64.6	0	0	---	0.00	30.001 
05:35	66.3	66.3	66.3	94	64.5	0	0	---	0.00	30.001 
05:40	66.3	66.3	66.3	94	64.5	0	0	---	0.00	30.001 
05:45	66.3	66.3	66.3	94	64.5	0	1	315	0.00	30.003 
05:50	66.1	66.1	66.1	94	64.3	0	1	315	0.00	30.003 
05:55	66.1	66.1	66.1	94	64.3	0	1	315	0.00	30.003 
06:00	66.1	66.1	66.1	94	64.3	0	1	315	0.00	30.011 
06:05	66.1	66.1	66.1	94	64.3	0	1	315	0.00	30.011 
06:10	66.0	66.0	66.0	94	64.2	0	1	315	0.00	30.011 
06:15	65.8	65.8	65.8	94	64.0	0	1	315	0.00	30.004 
06:20	65.8	65.8	65.8	94	64.0	0	1	315	0.00	30.004 
06:25	65.6	65.6	65.6	94	63.8	0	0	---	0.00	30.004 
06:30	65.6	65.6	65.6	94	63.8	0	0	---	0.00	30.008 
06:35	65.6	65.6	65.6	94	63.8	0	0	---	0.00	30.008 
06:40	65.6	65.6	65.6	94	63.8	0	0	---	0.00	30.008 
06:45	65.6	65.6	65.6	94	63.8	0	0	---	0.00	30.011 
06:50	65.6	65.6	65.6	95	64.1	0	1	315	0.00	30.011 
06:55	65.8	65.8	65.8	95	64.3	0	1	270	0.00	30.011 
07:00	65.8	65.8	65.8	95	64.3	0	0	---	0.00	30.012 
07:05	65.6	65.6	65.6	95	64.1	0	0	---	0.00	30.012 
07:10	65.6	65.6	65.6	94	63.8	0	1	270	0.00	30.012 
07:15	65.6	65.6	65.6	94	63.8	0	0	---	0.00	30.011 
07:20	65.6	65.6	65.6	94	63.8	0	1	270	0.00	30.011 
07:25	65.8	65.8	65.8	94	64.0	0	1	270	0.00	30.011 
07:30	65.8	65.8	65.8	94	64.0	0	0	---	0.00	30.009 
07:35	66.0	66.0	66.0	94	64.2	0	0	---	0.00	30.009 
07:40	66.0	66.0	66.0	94	64.2	0	1	270	0.00	30.009 
07:45	66.0	66.0	66.0	94	64.2	0	1	270	0.00	30.008 
07:50	66.1	66.1	66.1	94	64.3	0	1	292	0.00	30.008 
07:55	66.3	66.3	66.3	94	64.5	0	1	292	0.00	30.008 
08:00	66.4	66.4	66.4	94	64.6	0	1	292	0.00	30.010 
08:05	66.6	66.6	66.6	94	64.8	0	1	292	0.00	30.010 
08:10	66.6	66.6	66.6	94	64.8	0	1	292	0.00	30.010 
08:15	66.6	66.6	66.6	94	64.8	0	1	292	0.00	30.010 
08:20	66.8	66.8	66.8	94	65.0	0	2	292	0.00	30.010 
08:25	66.8	66.8	66.8	94	65.0	0	1	292	0.00	30.010 
08:30	66.9	66.9	66.9	94	65.1	0	1	292	0.00	30.013 
08:35	66.9	66.9	66.9	93	64.8	0	0	---	0.00	30.013 
08:40	66.9	66.9	66.9	93	64.8	0	0	---	0.00	30.013 
08:45	67.1	67.1	67.1	93	65.0	0	0	---	0.00	30.010 
08:50	67.1	67.1	67.1	93	65.0	0	0	---	0.00	30.010 
08:55	67.3	67.3	67.3	93	65.2	0	1	292	0.00	30.010 
09:00	67.3	67.3	67.3	93	65.2	0	0	---	0.00	30.010 
09:05	67.4	67.4	67.4	93	65.3	0	1	292	0.00	30.010 
09:10	67.6	67.6	67.6	93	65.5	0	2	292	0.00	30.010 
09:15	67.6	67.6	67.6	93	65.5	0	0	---	0.00	30.012 
09:20	67.8	67.8	67.8	93	65.7	0	0	---	0.00	30.012 
09:25	67.9	67.9	67.9	92	65.5	0	1	292	0.00	30.012 
09:30	67.9	67.9	67.9	92	65.5	0	0	---	0.00	30.010 
09:35	68.1	68.1	68.1	92	65.7	0	1	292	0.00	30.010 
09:40	68.1	68.1	68.1	92	65.7	0	0	---	0.00	30.010 
09:45	68.3	68.3	68.3	92	65.9	0	2	292	0.00	30.010 
09:50	68.3	68.3	68.3	92	65.9	0	1	292	0.00	30.010 
09:55	68.4	68.4	68.4	92	66.0	0	1	292	0.00	30.010 
10:00	68.4	68.4	68.4	92	66.0	0	0	---	0.00	30.010 
10:05	68.6	68.6	68.6	91	65.9	0	2	292	0.00	30.010 
10:10	68.8	68.8	68.8	92	66.4	0	1	292	0.00	30.010 
10:15	68.9	68.9	68.9	92	66.5	0	1	292	0.00	30.009 
10:20	68.9	68.9	68.9	91	66.2	0	1	292	0.00	30.009 
10:25	69.1	69.1	69.1	91	66.4	0	1	292	0.00	30.009 
10:30	69.3	69.3	69.3	90	66.2	0	1	292	0.00	30.009 
10:35	69.4	69.4	69.4	90	66.3	0	1	292	0.00	30.009 
10:40	69.6	69.6	69.6	90	66.5	0	0	---	0.00	30.009 
10:45	69.9	69.9	69.9	88	66.2	0	1	292	0.00	30.009 
10:50	69.9	69.9	69.9	88	66.2	0	2	292	0.00	30.009 
10:55	70.3	70.3	70.3	87	66.2	0	2	292	0.00	30.009 
11:00	70.8	70.8	70.8	87	66.7	0	1	292	0.00	30.008 
11:05	71.1	71.1	71.1	86	66.7	0	2	315	0.00	30.008 
11:10	71.6	71.6	71.6	85	66.8	0	2	315	0.00	30.008 
11:15	72.0	72.0	72.0	82	66.2	0	2	338	0.00	30.008 
11:20	72.0	72.0	72.0	81	65.8	2	4	90	0.00	30.008 
11:25	72.1	72.1	72.1	83	66.6	0	2	90	0.00	30.008 
11:30	72.3	72.3	72.3	80	65.8	1	3	90	0.00	30.006 
11:35	72.7	72.7	72.7	80	66.2	1	3	90	0.00	30.006 
11:40	73.2	73.2	73.2	81	67.0	1	3	90	0.00	30.006 
11:45	73.2	73.2	73.2	79	66.3	1	3	90	0.01	30.006 
11:50	73.2	73.2	73.2	76	65.2	0	2	90	0.00	30.006 
11:55	73.2	73.2	73.2	76	65.2	0	1	90	0.00	30.006 
12:00	73.2	73.2	73.2	77	65.5	0	3	90	0.00	30.005 
12:05	73.3	73.3	73.3	78	66.0	0	1	90	0.00	30.005 
12:10	73.2	73.2	73.2	78	65.9	0	2	90	0.00	30.005 
12:15	73.0	73.0	73.0	77	65.3	0	2	90	0.00	30.007 
12:20	73.0	73.0	73.0	78	65.7	0	1	90	0.00	30.007 
12:25	73.0	73.0	73.0	78	65.7	0	1	90	0.00	30.007 
12:30	73.0	73.0	73.0	79	66.1	0	0	---	0.00	30.007 
12:35	73.0	73.0	73.0	78	65.7	0	0	---	0.00	30.007 
12:40	73.0	73.0	73.0	77	65.3	0	0	---	0.00	30.007 
12:45	73.0	73.0	73.0	77	65.3	0	1	90	0.00	30.007 
12:50	73.0	73.0	73.0	77	65.3	0	1	90	0.00	30.007 
12:55	73.0	73.0	73.0	77	65.3	0	1	90	0.00	30.007 
13:00	73.0	73.0	73.0	77	65.3	0	0	---	0.00	30.007 
13:05	73.2	73.2	73.2	76	65.2	0	1	90	0.00	30.007 
13:10	73.3	73.3	73.3	77	65.6	0	0	---	0.00	30.007 
13:15	73.5	73.5	73.5	77	65.8	0	1	90	0.00	30.006 
13:20	73.9	73.9	73.9	78	66.6	0	1	90	0.00	30.006 
13:25	74.2	74.2	74.2	73	65.0	0	1	90	0.00	30.006 
13:30	74.7	74.7	74.7	73	65.5	0	1	90	0.00	30.005 
13:35	75.3	75.3	76.9	71	65.2	1	2	0	0.00	30.005 
13:40	75.8	75.8	77.6	68	64.5	1	3	22	0.00	30.005 
13:45	76.1	76.1	77.8	69	65.2	0	3	68	0.00	30.000 
13:50	76.1	76.1	77.8	69	65.2	1	3	68	0.00	30.000 
13:55	76.0	76.0	77.6	71	65.9	0	2	68	0.00	30.000 
14:00	75.6	75.6	77.2	70	65.1	0	1	68	0.00	29.998 
14:05	75.3	75.3	76.4	76	67.2	0	4	68	0.00	29.998 
14:10	74.9	74.9	74.9	78	67.6	1	5	45	0.00	29.998 
14:15	74.4	74.4	74.4	77	66.7	1	3	68	0.00	30.000 
14:20	74.4	74.4	74.4	78	67.1	0	3	338	0.00	30.000 
14:25	74.2	74.2	74.2	77	66.5	3	6	90	0.00	30.000 
14:30	74.0	74.0	74.0	77	66.3	2	5	112	0.00	29.998 
14:35	74.0	74.0	74.0	79	67.1	1	4	112	0.00	29.998 
14:40	74.2	74.2	74.2	76	66.1	1	3	68	0.00	29.998 
14:45	74.6	74.6	74.6	77	66.9	1	4	90	0.00	29.990 
14:50	74.6	74.6	74.6	76	66.5	2	4	90	0.00	29.990 
14:55	74.6	74.6	74.6	77	66.9	1	3	90	0.00	29.990 
15:00	74.4	74.4	74.4	79	67.4	1	4	112	0.00	29.982 
15:05	74.0	74.0	74.0	78	66.7	1	3	90	0.00	29.982 
15:10	73.3	73.3	73.3	79	66.4	2	6	90	0.00	29.982 
15:15	73.0	73.0	73.0	81	66.8	2	7	112	0.00	29.982 
15:20	73.3	73.3	73.3	81	67.1	2	4	90	0.00	29.982 
15:25	73.9	73.9	73.9	78	66.6	2	4	90	0.00	29.982 
15:30	74.4	74.4	74.4	76	66.3	2	4	90	0.00	29.976 
15:35	74.4	74.4	74.4	75	65.9	1	4	112	0.00	29.976 
15:40	74.6	74.6	74.6	76	66.5	1	3	90	0.00	29.976 
15:45	74.9	74.9	74.9	73	65.6	1	6	315	0.00	29.962 
15:50	75.4	75.4	76.5	76	67.3	1	4	112	0.00	29.962 
15:55	76.1	76.1	77.6	73	66.8	1	4	112	0.00	29.962 
16:00	76.1	76.1	77.8	70	65.6	1	5	45	0.00	29.958 
16:05	76.3	76.3	77.8	73	67.0	1	4	112	0.00	29.958 
16:10	76.3	76.3	77.9	71	66.2	0	2	22	0.00	29.958 
16:15	76.1	76.1	77.8	70	65.6	1	3	90	0.00	29.956 
16:20	76.0	76.0	77.6	71	65.9	0	2	90	0.00	29.956 
16:25	76.0	76.0	77.6	71	65.9	1	4	90	0.00	29.956 
16:30	76.1	76.1	77.7	71	66.0	0	2	90	0.00	29.950 
16:35	76.5	76.5	78.2	70	66.0	0	2	22	0.00	29.950 
16:40	76.5	76.5	78.2	69	65.6	1	3	22	0.00	29.950 
16:45	76.3	76.3	78.0	69	65.4	1	3	68	0.00	29.951 
16:50	76.0	76.0	77.7	70	65.5	1	3	90	0.00	29.951 
16:55	75.8	75.8	77.4	70	65.3	1	4	112	0.00	29.951 
17:00	75.6	75.6	77.2	70	65.1	0	2	112	0.00	29.944 
17:05	75.6	75.6	77.1	72	65.9	1	3	90	0.00	29.944 
17:10	76.3	76.3	78.0	70	65.8	1	5	68	0.00	29.944 
17:15	76.0	76.0	77.7	70	65.5	2	7	90	0.00	29.952 
17:20	75.6	75.6	77.3	69	64.7	2	5	68	0.00	29.952 
17:25	75.1	75.1	76.8	70	64.6	0	3	68	0.00	29.952 
17:30	74.7	74.7	74.7	71	64.7	1	3	45	0.00	29.950 
17:35	74.6	74.6	74.6	70	64.2	1	5	112	0.00	29.950 
17:40	74.4	74.4	74.4	72	64.8	1	3	90	0.00	29.950 
17:45	74.4	74.4	74.4	71	64.4	1	2	68	0.00	29.944 
17:50	74.2	74.2	74.2	69	63.4	2	4	135	0.00	29.944 
17:55	74.2	74.2	74.2	69	63.4	1	3	112	0.00	29.944 
18:00	74.0	74.0	74.0	70	63.6	0	2	112	0.00	29.944 
18:05	73.9	73.9	73.9	69	63.1	1	4	135	0.00	29.944 
18:10	73.7	73.7	73.7	70	63.3	0	3	158	0.00	29.944 
18:15	73.7	73.7	73.7	71	63.7	0	2	112	0.00	29.944 
18:20	73.7	73.7	73.7	72	64.1	1	3	112	0.00	29.944 
18:25	73.9	73.9	73.9	70	63.5	1	4	112	0.00	29.944 
18:30	73.9	73.9	73.9	68	62.7	1	4	68	0.00	29.937 
18:35	73.9	73.9	73.9	67	62.2	2	3	112	0.00	29.937 
18:40	73.7	73.7	73.7	69	62.9	0	2	112	0.00	29.937 
18:45	73.7	73.7	73.7	69	62.9	0	2	112	0.00	29.933 
18:50	73.5	73.5	73.5	67	61.9	0	2	112	0.00	29.933 
18:55	73.5	73.5	73.5	68	62.3	0	3	45	0.00	29.933 
19:00	73.3	73.3	73.3	67	61.7	1	5	112	0.00	29.931 
19:05	73.2	73.2	73.2	67	61.6	1	3	68	0.00	29.931 
19:10	73.0	73.0	73.0	65	60.5	0	4	135	0.00	29.931 
19:15	72.7	72.7	72.7	65	60.2	0	1	135	0.00	29.932 
19:20	72.3	72.3	72.3	65	59.9	0	0	---	0.00	29.932 
19:25	72.1	72.1	72.1	65	59.7	0	1	135	0.00	29.932 
19:30	72.1	72.1	72.1	65	59.7	0	0	---	0.00	29.931 
19:35	72.0	72.0	72.0	66	60.0	0	1	135	0.00	29.931 
19:40	72.0	72.0	72.0	66	60.0	0	0	---	0.00	29.931 
19:45	72.0	72.0	72.0	65	59.6	0	0	---	0.00	29.932 
19:50	71.8	71.8	71.8	65	59.4	0	1	135	0.00	29.932 
19:55	71.8	71.8	71.8	66	59.8	0	1	135	0.00	29.932 
20:00	71.5	71.5	71.5	67	60.0	0	2	202	0.00	29.934 
20:05	71.3	71.3	71.3	67	59.8	0	0	---	0.00	29.934 
20:10	71.1	71.1	71.1	68	60.0	0	1	202	0.00	29.934 
20:15	70.9	70.9	70.9	68	59.8	0	1	202	0.00	29.938 
20:20	70.8	70.8	70.8	69	60.1	0	1	202	0.00	29.938 
20:25	70.4	70.4	70.4	68	59.3	0	1	292	0.00	29.938 
20:30	70.4	70.4	70.4	69	59.7	0	1	292	0.00	29.934 
20:35	70.3	70.3	70.3	69	59.6	0	1	292	0.00	29.934 
20:40	70.1	70.1	70.1	68	59.0	0	2	338	0.00	29.934 
20:45	70.1	70.1	70.1	69	59.4	0	1	338	0.00	29.934 
20:50	69.9	69.9	69.9	69	59.3	0	1	338	0.00	29.934 
20:55	69.9	69.9	69.9	68	58.8	0	1	338	0.00	29.934 
21:00	69.8	69.8	69.8	69	59.2	0	1	338	0.00	29.932 
21:05	69.8	69.8	69.8	69	59.2	0	0	---	0.00	29.932 
21:10	69.6	69.6	69.6	69	59.0	0	1	338	0.00	29.932 
21:15	69.6	69.6	69.6	69	59.0	0	0	---	0.00	29.933 
21:20	69.6	69.6	69.6	70	59.4	0	0	---	0.00	29.933 
21:25	69.6	69.6	69.6	69	59.0	0	0	---	0.00	29.933 
21:30	69.6	69.6	69.6	69	59.0	0	0	---	0.00	29.932 
21:35	69.6	69.6	69.6	70	59.4	0	1	338	0.00	29.932 
21:40	69.6	69.6	69.6	70	59.4	0	0	---	0.00	29.932 
21:45	69.4	69.4	69.4	70	59.2	0	1	338	0.00	29.935 
21:50	69.4	69.4	69.4	70	59.2	0	0	---	0.00	29.935 
21:55	69.4	69.4	69.4	70	59.2	0	1	338	0.00	29.935 
22:00	69.4	69.4	69.4	71	59.6	0	0	---	0.00	29.936 
22:05	69.4	69.4	69.4	71	59.6	0	1	338	0.00	29.936 
22:10	69.4	69.4	69.4	71	59.6	0	1	338	0.00	29.936 
22:15	69.4	69.4	69.4	71	59.6	0	0	---	0.00	29.942 
22:20	69.4	69.4	69.4	70	59.2	0	1	338	0.00	29.942 
22:25	69.4	69.4	69.4	70	59.2	0	1	338	0.00	29.942 
22:30	69.6	69.6	69.6	71	59.8	0	1	338	0.00	29.944 
22:35	69.4	69.4	69.4	71	59.6	0	1	338	0.00	29.944 
22:40	69.3	69.3	69.3	71	59.5	0	1	338	0.00	29.944 
22:45	69.1	69.1	69.1	71	59.3	0	1	338	0.00	29.945 
22:50	69.1	69.1	69.1	73	60.1	0	0	---	0.00	29.945 
22:55	68.8	68.8	68.8	74	60.2	0	1	338	0.00	29.945 
23:00	68.6	68.6	68.6	73	59.6	0	1	338	0.00	29.946 
23:05	68.4	68.4	68.4	74	59.8	0	1	338	0.00	29.946 
23:10	68.1	68.1	68.1	74	59.5	0	0	---	0.00	29.946 
23:15	68.1	68.1	68.1	73	59.1	0	1	338	0.00	29.947 
23:20	68.1	68.1	68.1	74	59.5	0	1	338	0.00	29.947 
23:25	67.9	67.9	67.9	73	58.9	0	0	---	0.00	29.947 
23:30	67.9	67.9	67.9	73	58.9	0	0	---	0.00	29.948 
23:35	67.9	67.9	67.9	72	58.5	0	0	---	0.00	29.948 
23:40	67.9	67.9	67.9	72	58.5	0	0	---	0.00	29.948 
23:45	67.9	67.9	67.9	70	57.7	0	1	338	0.00	29.946 
23:50	67.8	67.8	67.8	69	57.2	0	1	338	0.00	29.946 
23:55	67.8	67.8	67.8	69	57.2	0	0	---	0.00	29.946 

CoCoRaHS
IN-AL-39
A2 Web Hosting
Creative Commons License
GoDaddy
Look for:

loaded 2017-10-16 18:26:49 • last modified 2010-11-18 10:43:29
Privacy PolicyDisclaimer
• wx.awcolley.com is powered by PmWiki v.2002016 •
• all content (unless otherwise noted) © 2017 A W Colley